createdAt,value
2022-10-22T00:01:59.107Z,88.29
2022-10-22T00:04:34.662Z,88.53
2022-10-22T00:07:07.767Z,89.02
2022-10-22T00:09:40.952Z,89.20
2022-10-22T00:12:13.848Z,89.05
2022-10-22T00:14:46.708Z,88.97
2022-10-22T00:17:25.850Z,88.97
2022-10-22T00:20:00.160Z,88.60
2022-10-22T00:22:34.520Z,88.85
2022-10-22T00:25:08.282Z,88.63
2022-10-22T00:27:41.558Z,88.89
2022-10-22T00:30:14.681Z,89.19
2022-10-22T00:32:49.169Z,89.20
2022-10-22T00:35:21.779Z,89.29
2022-10-22T00:37:55.231Z,88.98
2022-10-22T00:40:31.893Z,89.27
2022-10-22T00:43:04.616Z,89.45
2022-10-22T00:45:37.776Z,89.49
2022-10-22T00:48:32.747Z,89.79
2022-10-22T00:51:07.808Z,89.79
2022-10-22T00:53:48.004Z,89.55
2022-10-22T00:56:21.670Z,89.59
2022-10-22T00:58:57.737Z,89.47
2022-10-22T01:01:32.642Z,89.19
2022-10-22T01:04:05.641Z,89.34
2022-10-22T01:06:39.393Z,89.52
2022-10-22T01:09:35.057Z,89.41
2022-10-22T01:12:19.332Z,89.73
2022-10-22T01:15:17.380Z,89.91
2022-10-22T01:18:18.717Z,90.49
2022-10-22T01:21:16.432Z,90.41
2022-10-22T01:24:23.614Z,90.56
2022-10-22T01:27:18.152Z,90.18
2022-10-22T01:30:03.572Z,90.22
2022-10-22T01:32:46.973Z,90.19
2022-10-22T01:35:24.805Z,90.30
2022-10-22T01:38:01.079Z,90.11
2022-10-22T01:40:38.508Z,90.29
2022-10-22T01:43:12.100Z,90.66
2022-10-22T01:45:48.600Z,91.02
2022-10-22T01:48:48.657Z,91.43
2022-10-22T01:52:05.388Z,91.57
2022-10-22T01:55:00.903Z,91.62
2022-10-22T01:58:27.435Z,91.99
2022-10-22T02:01:19.956Z,92.26
2022-10-22T02:04:37.083Z,92.13
2022-10-22T02:07:12.041Z,92.58
2022-10-22T02:09:45.242Z,92.43
2022-10-22T02:12:19.229Z,92.98
2022-10-22T02:14:52.145Z,93.09
2022-10-22T02:17:26.244Z,93.25
2022-10-22T02:20:03.503Z,93.89
2022-10-22T02:22:38.410Z,94.46
2022-10-22T02:25:12.501Z,94.56
2022-10-22T02:28:05.084Z,94.78
2022-10-22T02:30:38.142Z,94.95
2022-10-22T02:33:20.678Z,95.41
2022-10-22T02:35:55.058Z,95.16
2022-10-22T02:38:28.589Z,95.48
2022-10-22T02:41:02.972Z,95.60
2022-10-22T02:43:44.233Z,95.65
2022-10-22T02:46:17.150Z,95.58
2022-10-22T02:48:49.856Z,95.43
2022-10-22T02:51:22.504Z,95.48
2022-10-22T02:53:55.315Z,95.58
2022-10-22T02:56:28.172Z,95.64
2022-10-22T02:59:02.763Z,95.51
2022-10-22T03:01:36.020Z,95.29
2022-10-22T03:04:09.395Z,94.90
2022-10-22T03:06:48.227Z,94.90
2022-10-22T03:09:24.735Z,94.83
2022-10-22T03:11:56.630Z,94.98
2022-10-22T03:14:31.370Z,95.03
2022-10-22T03:17:04.669Z,95.08
2022-10-22T03:19:37.354Z,95.10
2022-10-22T03:22:20.245Z,95.38
2022-10-22T03:25:01.081Z,95.23
2022-10-22T03:27:38.022Z,95.12
2022-10-22T03:30:12.615Z,95.28
2022-10-22T03:32:46.498Z,95.14
2022-10-22T03:35:22.889Z,95.07
2022-10-22T03:37:58.244Z,94.96
2022-10-22T03:40:30.794Z,94.76
2022-10-22T03:43:05.596Z,94.91
2022-10-22T03:48:11.286Z,94.85
2022-10-22T03:50:43.906Z,94.87
2022-10-22T03:53:16.866Z,94.58
2022-10-22T03:55:51.801Z,94.35
2022-10-22T03:58:24.703Z,93.25
2022-10-22T04:00:58.708Z,92.68
2022-10-22T04:03:32.835Z,92.46
2022-10-22T04:06:13.720Z,91.33
2022-10-22T04:08:48.599Z,90.70
2022-10-22T04:11:23.034Z,89.75
2022-10-22T04:13:57.155Z,89.43
2022-10-22T04:16:31.707Z,88.91
2022-10-22T04:19:04.575Z,88.54
2022-10-22T04:21:38.262Z,88.32
2022-10-22T04:24:10.899Z,88.50
2022-10-22T04:26:46.300Z,88.04
2022-10-22T04:29:18.917Z,87.92
2022-10-22T04:31:53.832Z,87.86
2022-10-22T04:34:31.634Z,87.30
2022-10-22T04:37:06.443Z,86.95
2022-10-22T04:39:40.357Z,86.71
2022-10-22T04:42:15.262Z,86.69
2022-10-22T04:44:48.962Z,86.44
2022-10-22T04:47:22.426Z,86.28
2022-10-22T04:49:55.840Z,86.02
2022-10-22T04:52:30.774Z,85.56
2022-10-22T04:55:03.783Z,85.57
2022-10-22T04:57:36.612Z,85.65
2022-10-22T05:00:11.078Z,86.45
2022-10-22T05:02:45.105Z,86.79
2022-10-22T05:05:19.127Z,86.98
2022-10-22T05:07:53.604Z,86.84
2022-10-22T05:10:27.242Z,86.12
2022-10-22T05:13:02.167Z,86.22
2022-10-22T05:15:36.014Z,85.98
2022-10-22T05:18:09.547Z,86.01
2022-10-22T05:20:43.514Z,85.70
2022-10-22T05:23:16.910Z,85.76
2022-10-22T05:25:49.601Z,84.97
2022-10-22T05:28:22.180Z,85.04
2022-10-22T05:30:59.393Z,84.65
2022-10-22T05:33:33.063Z,84.00
2022-10-22T05:36:08.784Z,83.42
2022-10-22T05:38:42.199Z,83.11
2022-10-22T05:41:18.538Z,82.97
2022-10-22T05:43:51.456Z,82.54
2022-10-22T05:46:27.377Z,82.38
2022-10-22T05:49:03.826Z,82.08
2022-10-22T05:51:37.977Z,81.63
2022-10-22T05:56:57.132Z,80.59
2022-10-22T05:59:32.446Z,80.08
2022-10-22T06:02:08.930Z,79.75
2022-10-22T06:04:45.514Z,79.07
2022-10-22T06:07:18.110Z,77.84
2022-10-22T06:09:52.092Z,75.76
2022-10-22T06:12:27.088Z,72.84
2022-10-22T06:15:00.187Z,69.17
2022-10-22T10:39:16.238Z,67.96
2022-10-22T10:42:20.671Z,67.52
2022-10-22T10:45:07.204Z,67.39
2022-10-22T10:48:12.820Z,67.27
2022-10-22T10:51:05.926Z,67.20
2022-10-22T10:54:07.540Z,67.29
2022-10-22T11:00:20.167Z,67.32
2022-10-22T11:03:19.038Z,67.64
2022-10-22T11:06:01.211Z,67.75
2022-10-22T11:08:41.997Z,68.19
2022-10-22T11:11:19.358Z,68.65
2022-10-22T11:13:56.133Z,68.86
2022-10-22T11:16:47.855Z,68.96
2022-10-22T11:19:52.948Z,69.13
2022-10-22T11:23:00.354Z,69.38
2022-10-22T11:25:25.117Z,69.43
2022-10-22T11:28:06.767Z,69.42
2022-10-22T11:30:37.471Z,69.26
2022-10-22T11:33:13.912Z,69.27
2022-10-22T11:35:47.993Z,69.27
2022-10-22T11:38:24.144Z,69.15
2022-10-22T11:41:16.937Z,68.96
2022-10-22T11:44:27.363Z,68.53
2022-10-22T11:47:12.545Z,68.14
2022-10-22T11:49:51.135Z,68.21
2022-10-22T11:52:35.115Z,68.24
2022-10-22T11:55:33.458Z,68.25
2022-10-22T11:58:10.954Z,68.52
2022-10-22T12:00:48.760Z,68.61
2022-10-22T12:03:28.794Z,68.23
2022-10-22T12:06:13.346Z,68.30
2022-10-22T12:08:57.881Z,68.22
2022-10-22T12:11:48.869Z,68.09
2022-10-22T12:14:38.099Z,68.20
2022-10-22T12:17:15.078Z,68.46
2022-10-22T12:19:56.392Z,68.29
2022-10-22T12:22:52.629Z,68.58
2022-10-22T12:25:30.075Z,68.71
2022-10-22T12:28:05.777Z,68.85
2022-10-22T12:30:40.091Z,68.95
2022-10-22T12:33:41.545Z,68.81
2022-10-22T12:36:23.037Z,68.90
2022-10-22T12:38:59.326Z,69.22
2022-10-22T12:41:36.830Z,69.66
2022-10-22T12:44:15.203Z,70.03
2022-10-22T12:46:56.003Z,70.41
2022-10-22T12:49:32.042Z,70.60
2022-10-22T12:52:13.992Z,70.86
2022-10-22T12:54:48.921Z,71.60
2022-10-22T12:57:21.556Z,71.80
2022-10-22T12:59:54.623Z,72.12
2022-10-22T13:02:28.952Z,72.24
2022-10-22T13:05:27.271Z,72.24
2022-10-22T13:08:17.362Z,72.07
2022-10-22T13:10:55.532Z,71.80
2022-10-22T13:13:42.870Z,71.62
2022-10-22T13:16:31.751Z,71.47
2022-10-22T13:19:03.769Z,71.70
2022-10-22T13:21:42.160Z,71.84
2022-10-22T13:24:26.655Z,71.81
2022-10-22T13:27:03.734Z,71.89
2022-10-22T13:29:38.394Z,72.15
2022-10-22T13:32:34.957Z,72.50
2022-10-22T13:35:09.438Z,72.61
2022-10-22T13:37:42.072Z,72.74
2022-10-22T13:40:17.302Z,72.95
2022-10-22T13:42:53.926Z,73.03
2022-10-22T13:45:28.044Z,73.14
2022-10-22T13:48:03.410Z,73.18
2022-10-22T13:50:38.639Z,73.28
2022-10-22T13:53:19.153Z,73.21
2022-10-22T13:55:52.309Z,73.16
2022-10-22T13:58:26.983Z,73.32
2022-10-22T14:01:01.145Z,73.57
2022-10-22T14:03:38.372Z,73.73
2022-10-22T14:06:14.633Z,73.68
2022-10-22T14:08:50.916Z,73.56
2022-10-22T14:11:27.042Z,73.42
2022-10-22T14:13:58.957Z,73.53
2022-10-22T14:16:32.508Z,73.65
2022-10-22T14:19:07.796Z,73.90
2022-10-22T14:21:43.107Z,73.80
2022-10-22T14:24:16.980Z,74.27
2022-10-22T14:26:50.503Z,74.93
2022-10-22T14:29:23.224Z,74.93
2022-10-22T14:31:57.509Z,74.92
2022-10-22T14:34:51.227Z,75.09
2022-10-22T14:37:26.022Z,75.28
2022-10-22T14:40:02.827Z,75.49
2022-10-22T14:42:41.936Z,75.78
2022-10-22T14:45:26.117Z,76.09
2022-10-22T14:48:00.282Z,76.03
2022-10-22T14:50:34.217Z,76.17
2022-10-22T14:53:07.302Z,76.16
2022-10-22T14:55:40.179Z,76.31
2022-10-22T14:58:13.512Z,76.34
2022-10-22T15:00:46.452Z,76.32
2022-10-22T15:03:19.993Z,76.20
2022-10-22T15:05:54.991Z,76.19
2022-10-22T15:08:28.185Z,76.09
2022-10-22T15:11:06.189Z,76.06
2022-10-22T15:13:42.312Z,76.16
2022-10-22T15:16:18.658Z,76.48
2022-10-22T15:18:53.318Z,77.00
2022-10-22T15:21:26.360Z,77.46
2022-10-22T15:24:00.974Z,77.63
2022-10-22T15:26:33.911Z,77.93
2022-10-22T15:29:07.082Z,78.29
2022-10-22T15:31:47.883Z,78.06
2022-10-22T15:34:27.995Z,77.80
2022-10-22T15:37:03.024Z,77.60
2022-10-22T15:39:36.738Z,77.40
2022-10-22T15:42:12.130Z,77.46
2022-10-22T15:44:48.394Z,77.57
2022-10-22T15:47:23.005Z,77.28
2022-10-22T15:49:59.049Z,76.92
2022-10-22T15:52:32.869Z,76.83
2022-10-22T15:55:08.551Z,76.88
2022-10-22T15:57:41.691Z,76.97
2022-10-22T16:00:17.345Z,76.72
2022-10-22T16:02:52.933Z,76.69
2022-10-22T16:05:25.791Z,76.80
2022-10-22T16:08:02.388Z,76.95
2022-10-22T16:10:39.605Z,77.08
2022-10-22T16:13:13.266Z,76.96
2022-10-22T16:15:46.102Z,76.68
2022-10-22T16:18:20.470Z,76.79
2022-10-22T16:20:55.567Z,76.97
2022-10-22T16:23:29.338Z,77.00
2022-10-22T16:26:05.079Z,77.16
2022-10-22T16:28:41.557Z,77.35
2022-10-22T16:31:18.005Z,77.73
2022-10-22T16:33:50.839Z,77.94
2022-10-22T16:36:24.025Z,78.04
2022-10-22T16:38:58.385Z,78.21
2022-10-22T16:41:39.699Z,78.43
2022-10-22T16:44:18.316Z,78.35
2022-10-22T16:46:55.451Z,78.51
2022-10-22T16:49:29.156Z,78.47
2022-10-22T16:52:06.322Z,78.55
2022-10-22T17:46:22.351Z,82.83
2022-10-22T17:49:12.860Z,82.81
2022-10-22T17:51:53.367Z,82.78
2022-10-22T17:54:33.446Z,82.72
2022-10-22T17:57:09.503Z,82.74
2022-10-22T17:59:45.313Z,82.78
2022-10-22T18:02:25.003Z,82.85
2022-10-22T18:04:59.416Z,82.98
2022-10-22T18:07:39.051Z,83.33
2022-10-22T18:10:15.972Z,83.50
2022-10-22T18:12:55.117Z,84.27
2022-10-22T18:18:34.654Z,86.93
2022-10-22T18:21:08.224Z,87.94
2022-10-22T18:23:50.147Z,88.58
2022-10-22T18:26:29.343Z,89.20
2022-10-22T18:29:20.745Z,89.85
2022-10-22T18:34:51.918Z,91.19
2022-10-22T18:37:26.630Z,91.61
2022-10-22T18:40:03.548Z,92.15
2022-10-22T18:42:50.741Z,92.70
2022-10-22T18:45:28.987Z,93.15
2022-10-22T18:48:08.631Z,93.58
2022-10-22T18:50:45.785Z,94.08
2022-10-22T18:53:26.731Z,94.44
2022-10-22T18:56:09.442Z,94.73
2022-10-22T18:58:48.012Z,94.83
2022-10-22T19:01:28.311Z,94.96
2022-10-22T19:04:04.118Z,95.26
2022-10-22T19:09:27.687Z,96.35
2022-10-22T19:12:02.219Z,96.64
2022-10-22T19:14:35.856Z,97.07
2022-10-22T19:17:10.648Z,97.30
2022-10-22T19:19:45.959Z,97.27
2022-10-22T19:22:18.810Z,97.15
2022-10-22T19:24:52.541Z,96.98
2022-10-22T19:27:27.601Z,96.88
2022-10-22T19:30:00.948Z,96.78
2022-10-22T19:32:38.189Z,96.43
2022-10-22T19:35:11.943Z,96.13
2022-10-22T19:37:51.006Z,95.99
2022-10-22T19:40:28.890Z,95.63
2022-10-22T19:43:04.370Z,95.30
2022-10-22T19:45:59.930Z,94.83
2022-10-22T19:48:36.305Z,94.81
2022-10-22T19:51:15.227Z,94.70
2022-10-22T19:53:51.179Z,94.58
2022-10-22T19:56:24.372Z,94.48
2022-10-22T19:58:59.649Z,94.70
2022-10-22T20:01:32.999Z,95.03
2022-10-22T20:04:07.861Z,95.35
2022-10-22T20:06:45.676Z,95.41
2022-10-22T20:09:24.903Z,95.40
2022-10-22T20:11:58.351Z,95.35
2022-10-22T20:14:31.883Z,95.18
2022-10-22T20:17:08.537Z,94.97
2022-10-22T20:19:43.511Z,94.76
2022-10-22T20:22:18.778Z,94.53
2022-10-22T20:24:51.893Z,94.62
2022-10-22T20:27:24.809Z,94.54
2022-10-22T20:29:58.132Z,94.46
2022-10-22T20:32:33.466Z,94.09
2022-10-22T20:35:07.558Z,93.75
2022-10-22T20:37:42.419Z,93.43
2022-10-22T20:40:15.682Z,93.22
2022-10-22T20:42:50.101Z,93.11
2022-10-22T20:45:22.810Z,92.71
2022-10-22T20:48:02.776Z,92.36
2022-10-22T20:50:42.934Z,92.14
2022-10-22T20:53:17.042Z,91.66
2022-10-22T20:55:53.604Z,91.15
2022-10-22T20:58:31.100Z,90.66
2022-10-22T21:01:05.524Z,90.35
2022-10-22T21:03:42.637Z,90.52
2022-10-22T21:06:18.349Z,90.77
2022-10-22T21:08:52.430Z,91.20
2022-10-22T21:11:28.254Z,91.56
2022-10-22T21:14:01.816Z,92.04
2022-10-22T21:16:35.696Z,92.31
2022-10-22T21:19:09.024Z,92.74
2022-10-22T21:21:43.477Z,92.98
2022-10-22T21:24:16.398Z,93.13
2022-10-22T21:26:52.870Z,93.33
2022-10-22T21:29:25.993Z,93.30
2022-10-22T21:32:00.284Z,93.39
2022-10-22T21:34:38.172Z,93.82
2022-10-22T21:37:07.628Z,94.25
2022-10-22T21:39:42.308Z,94.68
2022-10-22T21:42:17.070Z,94.99
2022-10-22T21:44:49.765Z,95.43
2022-10-22T21:47:22.408Z,95.86
2022-10-22T21:50:00.161Z,96.14
2022-10-22T21:52:33.565Z,96.41
2022-10-22T21:55:08.882Z,96.83
2022-10-22T21:57:43.432Z,96.98
2022-10-22T22:00:20.349Z,97.04
2022-10-22T22:02:53.987Z,97.01
2022-10-22T22:05:28.940Z,96.88
2022-10-22T22:08:02.064Z,96.63
2022-10-22T22:10:37.401Z,96.60
2022-10-22T22:13:12.453Z,96.55
2022-10-22T22:15:45.689Z,96.54
2022-10-22T22:18:18.938Z,96.76
2022-10-22T22:20:52.594Z,96.93
2022-10-22T22:23:25.517Z,97.25
2022-10-22T22:26:02.682Z,97.48
2022-10-22T22:28:39.374Z,97.62
2022-10-22T22:31:19.158Z,97.74
2022-10-22T22:34:00.201Z,97.86
2022-10-22T22:36:58.825Z,98.03
2022-10-22T22:39:31.872Z,97.83
2022-10-22T22:42:04.615Z,97.42
2022-10-22T22:44:40.900Z,97.18
2022-10-22T22:47:15.647Z,97.01
2022-10-22T22:49:49.919Z,96.81
2022-10-22T22:52:22.752Z,96.76
2022-10-22T22:54:55.690Z,96.56
2022-10-22T22:57:31.349Z,96.63
2022-10-22T23:00:03.397Z,96.45
2022-10-22T23:02:36.241Z,96.28
2022-10-22T23:05:09.514Z,95.99
2022-10-22T23:07:43.938Z,95.72
2022-10-22T23:10:17.081Z,95.52
2022-10-22T23:12:50.425Z,95.29
2022-10-22T23:15:23.985Z,95.17
2022-10-22T23:18:00.553Z,94.85
2022-10-22T23:20:33.594Z,94.67
2022-10-22T23:23:07.890Z,94.40
2022-10-22T23:25:46.166Z,94.29
2022-10-22T23:28:19.402Z,94.36
2022-10-22T23:30:52.064Z,94.42
2022-10-22T23:33:26.298Z,94.68
2022-10-22T23:36:04.165Z,94.77
2022-10-22T23:38:39.691Z,94.56
2022-10-22T23:41:13.970Z,94.00
2022-10-22T23:43:48.159Z,93.66
2022-10-22T23:46:21.364Z,93.32
2022-10-22T23:48:54.288Z,93.35
2022-10-22T23:51:28.196Z,93.27
2022-10-22T23:54:03.185Z,93.03
2022-10-22T23:56:36.268Z,93.11
2022-10-22T23:59:10.588Z,92.94
